Quincy, IL

7:19 PM CDT on May 24, 2015 (GMT -0500)
Adams County Emergency Management | | Change Station
CLOSE
Current Station
Personal Weather Station
Location: Quincy, IL
Elevation: 725 ft
Nearby Weather Stations
Active Advisory: Tornado Watch Active Notice: Public Information Statement

Elev 725 ft 39.93 °N, 91.33 °W | Updated 0 second ago

Overcast
Overcast
68.5 °F
Feels Like 68.5 °F
N
0.0
Wind Variable Wind from SE
Gusts 0.0 mph

Today
High -- | Low -- °F
--% Chance of Precip.
Yesterday
High -- | Low -- °F
Precip. -- in
5:43 AM 8:21 PM
Waxing Crescent, 43% visible
Pressure 29.86 in
Visibility 10.0 miles
Clouds Scattered Clouds 6000 ft
Mostly Cloudy 8000 ft
Overcast 10000 ft
Dew Point 66 °F
Humidity 93%
Rainfall 0.48 in
Snow Depth Not available.
UV 0 out of 12
Pollen 4.10 out of 12
Air Quality Not available.
Flu Activity Sporadic
METAR KUIN 242354Z AUTO 19008KT 10SM -RA SCT060 BKN080 OVC100 21/19 A2987 RMK AO2 WSHFT 2241 LTG DSNT E SLP109 P0006 60012 T02060189 10283 20206 50002

More Conditions Fewer Conditions

Pressure 29.86 in
Visibility 10.0 miles
Clouds Scattered Clouds 6000 ft
Mostly Cloudy 8000 ft
Overcast 10000 ft
Dew Point 66 °F
Humidity 93%
Rainfall 0.48 in
Snow Depth Not available.
UV 0 out of 12
Pollen 4.10 out of 12
Air Quality Not available.
Flu Activity Sporadic
METAR KUIN 242354Z AUTO 19008KT 10SM -RA SCT060 BKN080 OVC100 21/19 A2987 RMK AO2 WSHFT 2241 LTG DSNT E SLP109 P0006 60012 T02060189 10283 20206 50002

More Conditions Fewer Conditions

10-Day Weather Forecast

Almanac

Astronomy

May. 24, 2015 Rise Set
Actual Time
Civil Twilight
Nautical Twilight
Astronomical Twilight
Moon
Length of Visible Light
Length of Day
Tomorrow will be .
, % of the Moon is Illuminated

Today's Extremes

State Highs State Lows

Community

WunderPhotos

Upload Photos

1,823,900 photos uploaded!

WunderBlogs® & News

Nearby

Air Quality

  Air Quality AQ Index Pollutant
Not available.

Snow Depth

Station Depth Elevation

Earthquake Activity

City Distance Mag. Time & Date
Minimum magnitude displayed is 2.5.

Coastal Water Temperatures

Place Temperature

Stations

Nearby Weather Stations

Station Location Temp. Windchill Dew Point Humidity Wind Precip. Elev Updated Type
                   
Tornado Watch
Statement as of 7:03 PM CDT on May 24, 2015

Tornado Watch 205 remains in effect until 1000 PM CDT for the
following locations

IL
. Illinois counties included are

Adams Alexander Bond
Brown Calhoun Clinton
Fayette Greene Jackson
Jersey Macoupin Madison
Marion Monroe Montgomery
Perry Pike Pulaski
Randolph St. Clair Union
Washington